createdAt,value
2019-04-03T00:00:35.481Z,8.70
2019-04-03T00:03:06.109Z,8.70
2019-04-03T00:05:39.497Z,8.70
2019-04-03T00:08:09.941Z,8.70
2019-04-03T00:10:41.095Z,8.70
2019-04-03T00:13:11.400Z,8.70
2019-04-03T00:15:42.801Z,8.70
2019-04-03T00:18:16.020Z,8.70
2019-04-03T00:20:45.049Z,8.70
2019-04-03T00:23:15.595Z,8.70
2019-04-03T00:25:46.106Z,8.70
2019-04-03T00:28:16.971Z,8.70
2019-04-03T00:30:47.172Z,8.70
2019-04-03T00:33:19.830Z,8.70
2019-04-03T00:35:49.958Z,8.70
2019-04-03T00:38:23.913Z,8.60
2019-04-03T00:40:54.314Z,8.60
2019-04-03T00:43:25.325Z,8.60
2019-04-03T00:45:55.399Z,8.60
2019-04-03T00:48:26.121Z,8.60
2019-04-03T00:50:57.347Z,8.60
2019-04-03T00:53:28.262Z,8.60
2019-04-03T00:55:59.753Z,8.60
2019-04-03T00:58:41.688Z,8.50
2019-04-03T01:01:13.270Z,8.60
2019-04-03T01:03:43.347Z,8.60
2019-04-03T01:06:14.005Z,8.60
2019-04-03T01:08:47.284Z,8.60
2019-04-03T01:11:17.500Z,8.60
2019-04-03T01:13:50.608Z,8.60
2019-04-03T01:16:21.413Z,8.60
2019-04-03T01:18:51.370Z,8.50
2019-04-03T01:21:21.700Z,8.50
2019-04-03T01:23:51.682Z,8.50
2019-04-03T01:26:22.018Z,8.40
2019-04-03T01:28:52.041Z,8.40
2019-04-03T01:31:22.036Z,8.30
2019-04-03T01:33:52.011Z,8.30
2019-04-03T01:36:35.287Z,8.30
2019-04-03T01:39:07.397Z,8.30
2019-04-03T01:41:37.475Z,8.30
2019-04-03T01:44:07.781Z,8.30
2019-04-03T01:46:37.724Z,8.20
2019-04-03T01:49:08.186Z,8.10
2019-04-03T01:51:38.189Z,8.10
2019-04-03T01:54:08.386Z,8.10
2019-04-03T01:56:38.472Z,8.00
2019-04-03T01:59:08.566Z,7.90
2019-04-03T02:01:39.098Z,7.90
2019-04-03T02:04:10.635Z,7.80
2019-04-03T02:06:41.795Z,7.80
2019-04-03T02:09:15.230Z,7.80
2019-04-03T02:11:44.587Z,7.70
2019-04-03T02:14:14.658Z,7.70
2019-04-03T02:16:44.823Z,7.70
2019-04-03T02:19:14.918Z,7.60
2019-04-03T02:21:44.883Z,7.50
2019-04-03T02:24:14.855Z,7.50
2019-04-03T02:26:45.275Z,7.50
2019-04-03T02:29:15.716Z,7.50
2019-04-03T02:31:45.766Z,7.50
2019-04-03T02:34:16.132Z,7.50
2019-04-03T02:36:46.159Z,7.50
2019-04-03T02:39:16.157Z,7.50
2019-04-03T02:41:46.352Z,7.40
2019-04-03T02:44:19.158Z,7.40
2019-04-03T02:46:48.004Z,7.40
2019-04-03T02:49:17.982Z,7.50
2019-04-03T02:51:52.431Z,7.40
2019-04-03T02:54:29.972Z,7.40
2019-04-03T02:57:00.419Z,7.40
2019-04-03T02:59:30.550Z,7.40
2019-04-03T03:02:00.649Z,7.40
2019-04-03T03:04:30.865Z,7.30
2019-04-03T03:07:04.440Z,7.30
2019-04-03T03:09:33.363Z,7.30
2019-04-03T03:12:04.165Z,7.20
2019-04-03T03:14:38.251Z,7.20
2019-04-03T03:17:11.496Z,7.20
2019-04-03T03:19:42.137Z,7.20
2019-04-03T03:22:16.935Z,7.20
2019-04-03T03:24:45.588Z,7.20
2019-04-03T03:27:15.586Z,7.20
2019-04-03T03:29:46.129Z,7.30
2019-04-03T03:32:21.294Z,7.30
2019-04-03T03:34:57.417Z,7.30
2019-04-03T03:37:19.829Z,7.30
2019-04-03T03:39:51.848Z,7.20
2019-04-03T03:42:22.182Z,7.20
2019-04-03T03:44:53.584Z,7.20
2019-04-03T03:47:24.850Z,7.20
2019-04-03T03:49:56.302Z,7.20
2019-04-03T03:52:26.897Z,7.20
2019-04-03T03:54:57.248Z,7.20
2019-04-03T03:57:28.004Z,7.20
2019-04-03T03:59:59.418Z,7.20
2019-04-03T04:02:29.509Z,7.20
2019-04-03T04:04:59.770Z,7.20
2019-04-03T04:07:30.326Z,7.20
2019-04-03T04:10:02.367Z,7.20
2019-04-03T04:12:32.611Z,7.10
2019-04-03T04:15:03.269Z,7.10
2019-04-03T04:17:33.615Z,7.10
2019-04-03T04:20:05.620Z,7.10
2019-04-03T04:22:35.812Z,7.10
2019-04-03T04:25:06.598Z,7.10
2019-04-03T04:27:39.137Z,7.10
2019-04-03T04:30:12.078Z,7.10
2019-04-03T04:32:46.910Z,7.10
2019-04-03T04:35:17.017Z,7.10
2019-04-03T04:37:46.961Z,7.00
2019-04-03T04:40:16.985Z,7.00
2019-04-03T04:42:47.356Z,7.00
2019-04-03T04:45:17.435Z,7.00
2019-04-03T04:47:47.422Z,7.00
2019-04-03T04:50:25.347Z,7.00
2019-04-03T04:52:54.869Z,7.00
2019-04-03T04:55:25.201Z,7.00
2019-04-03T04:57:55.476Z,7.00
2019-04-03T05:00:25.490Z,7.00
2019-04-03T05:02:55.771Z,6.90
2019-04-03T05:05:30.739Z,7.00
2019-04-03T05:08:01.986Z,7.00
2019-04-03T05:10:32.913Z,7.00
2019-04-03T05:13:03.101Z,7.00
2019-04-03T05:15:34.356Z,7.10
2019-04-03T05:18:04.791Z,7.10
2019-04-03T05:20:35.349Z,7.10
2019-04-03T05:23:05.361Z,7.10
2019-04-03T05:25:35.585Z,7.10
2019-04-03T05:28:05.661Z,7.10
2019-04-03T05:30:38.695Z,7.10
2019-04-03T05:33:10.645Z,7.10
2019-04-03T05:35:40.490Z,7.10
2019-04-03T05:38:15.375Z,7.10
2019-04-03T05:40:45.551Z,7.10
2019-04-03T05:43:15.494Z,7.20
2019-04-03T05:45:45.782Z,7.20
2019-04-03T05:48:17.792Z,7.20
2019-04-03T05:50:50.486Z,7.20
2019-04-03T05:53:20.403Z,7.20
2019-04-03T05:55:53.213Z,7.20
2019-04-03T05:58:23.491Z,7.20
2019-04-03T06:01:03.583Z,7.10
2019-04-03T06:03:40.407Z,7.10
2019-04-03T06:06:01.435Z,7.10
2019-04-03T06:08:34.795Z,7.10
2019-04-03T06:11:08.892Z,7.20
2019-04-03T06:13:41.626Z,7.10
2019-04-03T06:16:16.521Z,7.20
2019-04-03T06:18:47.631Z,7.20
2019-04-03T06:21:18.440Z,7.20
2019-04-03T06:23:48.556Z,7.20
2019-04-03T06:26:18.861Z,7.20
2019-04-03T06:28:48.805Z,7.30
2019-04-03T06:31:19.325Z,7.30
2019-04-03T06:33:51.134Z,7.30
2019-04-03T06:36:20.945Z,7.30
2019-04-03T06:38:50.947Z,7.30
2019-04-03T06:41:21.657Z,7.20
2019-04-03T06:43:54.503Z,7.20
2019-04-03T06:46:24.799Z,7.20
2019-04-03T06:48:56.316Z,7.20
2019-04-03T06:51:26.281Z,7.20
2019-04-03T06:53:58.906Z,7.10
2019-04-03T06:56:28.019Z,7.10
2019-04-03T06:58:58.282Z,7.00
2019-04-03T07:01:31.181Z,7.00
2019-04-03T07:04:01.121Z,7.00
2019-04-03T07:06:31.352Z,6.90
2019-04-03T07:09:01.602Z,6.90
2019-04-03T07:11:32.426Z,6.90
2019-04-03T07:14:02.593Z,6.90
2019-04-03T07:16:33.117Z,6.90
2019-04-03T07:19:03.570Z,6.90
2019-04-03T07:21:33.813Z,6.90
2019-04-03T07:24:07.257Z,6.90
2019-04-03T07:26:37.378Z,6.90
2019-04-03T07:29:07.524Z,6.90
2019-04-03T07:31:40.628Z,6.90
2019-04-03T07:34:15.413Z,7.00
2019-04-03T07:36:48.711Z,6.90
2019-04-03T07:39:21.123Z,6.80
2019-04-03T07:41:54.122Z,6.70
2019-04-03T07:44:30.737Z,6.70
2019-04-03T07:47:03.516Z,6.60
2019-04-03T07:49:32.492Z,6.60
2019-04-03T07:52:02.585Z,6.60
2019-04-03T07:54:38.844Z,6.70
2019-04-03T07:57:10.786Z,6.70
2019-04-03T07:59:45.055Z,6.60
2019-04-03T08:02:19.519Z,6.60
2019-04-03T08:04:49.612Z,6.60
2019-04-03T08:07:22.453Z,6.60
2019-04-03T08:09:52.739Z,6.80
2019-04-03T08:12:25.560Z,6.90
2019-04-03T08:14:55.632Z,7.00
2019-04-03T08:17:27.948Z,6.90
2019-04-03T08:19:59.616Z,6.90
2019-04-03T08:22:32.613Z,6.80
2019-04-03T08:25:05.596Z,6.80
2019-04-03T08:27:39.215Z,6.90
2019-04-03T08:30:11.553Z,7.00
2019-04-03T08:32:41.945Z,7.10
2019-04-03T08:35:20.432Z,7.20
2019-04-03T08:37:44.578Z,7.30
2019-04-03T08:40:15.151Z,7.40
2019-04-03T08:42:46.300Z,7.30
2019-04-03T08:45:16.711Z,7.40
2019-04-03T08:47:46.987Z,7.50
2019-04-03T08:50:18.921Z,7.50
2019-04-03T08:52:52.593Z,7.60
2019-04-03T08:55:25.597Z,7.70
2019-04-03T08:57:57.459Z,7.60
2019-04-03T09:00:32.763Z,7.60
2019-04-03T09:03:04.899Z,7.70
2019-04-03T09:05:35.530Z,7.80
2019-04-03T09:08:07.672Z,8.00
2019-04-03T09:10:39.961Z,8.10
2019-04-03T09:13:17.940Z,8.10
2019-04-03T09:15:43.676Z,8.00
2019-04-03T09:18:15.134Z,7.90
2019-04-03T09:20:46.994Z,7.90
2019-04-03T09:23:21.409Z,7.80
2019-04-03T09:25:52.524Z,7.80
2019-04-03T09:28:23.170Z,7.80
2019-04-03T09:30:56.648Z,7.90
2019-04-03T09:33:29.365Z,8.00
2019-04-03T09:35:59.988Z,8.00
2019-04-03T09:38:41.531Z,8.00
2019-04-03T09:41:19.193Z,8.10
2019-04-03T09:43:51.905Z,8.10
2019-04-03T09:46:23.479Z,8.30
2019-04-03T09:48:55.297Z,8.30
2019-04-03T09:51:34.973Z,8.30
2019-04-03T09:54:08.271Z,8.30
2019-04-03T09:56:54.853Z,8.30
2019-04-03T09:59:14.917Z,8.30
2019-04-03T10:01:47.832Z,8.50
2019-04-03T10:04:21.291Z,8.60
2019-04-03T10:06:55.191Z,8.80
2019-04-03T10:09:34.421Z,8.70
2019-04-03T10:12:04.936Z,8.40
2019-04-03T10:14:35.027Z,8.30
2019-04-03T10:17:08.489Z,8.20
2019-04-03T10:19:38.680Z,8.20
2019-04-03T10:22:10.761Z,8.20
2019-04-03T10:24:41.330Z,8.10
2019-04-03T10:27:12.909Z,8.20
2019-04-03T10:29:43.298Z,8.30
2019-04-03T10:32:19.567Z,8.40
2019-04-03T10:34:51.453Z,8.60
2019-04-03T10:37:21.427Z,8.60
2019-04-03T10:39:53.068Z,8.60
2019-04-03T10:42:26.100Z,8.60
2019-04-03T10:44:59.440Z,8.60
2019-04-03T10:47:40.300Z,8.60
2019-04-03T10:50:02.275Z,8.60
2019-04-03T10:52:33.817Z,8.60
2019-04-03T10:55:04.831Z,8.60
2019-04-03T10:57:35.469Z,8.70
2019-04-03T11:00:06.971Z,8.80
2019-04-03T11:02:37.551Z,8.70
2019-04-03T11:05:11.878Z,8.70
2019-04-03T11:07:44.001Z,8.70
2019-04-03T11:10:15.617Z,8.70
2019-04-03T11:12:45.815Z,8.70
2019-04-03T11:15:17.158Z,8.90
2019-04-03T11:17:49.435Z,8.90
2019-04-03T11:20:20.031Z,9.10
2019-04-03T11:23:03.822Z,9.20
2019-04-03T11:25:22.826Z,9.30
2019-04-03T11:27:53.947Z,9.40
2019-04-03T11:30:26.719Z,9.50
2019-04-03T11:32:57.439Z,9.70
2019-04-03T11:35:31.881Z,9.80
2019-04-03T11:38:12.652Z,9.70
2019-04-03T11:40:34.867Z,9.50
2019-04-03T11:43:08.751Z,9.50
2019-04-03T11:45:39.744Z,9.30
2019-04-03T11:48:11.560Z,9.10
2019-04-03T11:50:42.512Z,9.10
2019-04-03T11:53:21.849Z,9.20
2019-04-03T11:55:54.258Z,9.20
2019-04-03T11:58:26.731Z,9.20
2019-04-03T12:00:57.687Z,9.30
2019-04-03T12:03:28.402Z,9.20
2019-04-03T12:06:02.750Z,9.20
2019-04-03T12:08:38.219Z,9.20
2019-04-03T12:11:10.435Z,9.20
2019-04-03T12:13:42.973Z,9.20
2019-04-03T12:16:19.932Z,9.20
2019-04-03T12:18:51.100Z,9.20
2019-04-03T12:21:24.591Z,9.40
2019-04-03T12:23:57.757Z,9.40
2019-04-03T12:26:33.910Z,9.30
2019-04-03T12:29:11.308Z,9.30
2019-04-03T12:32:09.822Z,9.10
2019-04-03T12:34:42.844Z,9.10
2019-04-03T12:37:13.847Z,9.20
2019-04-03T12:39:44.438Z,9.20
2019-04-03T12:42:17.260Z,9.20
2019-04-03T12:44:48.049Z,9.30
2019-04-03T12:47:20.512Z,9.30
2019-04-03T12:49:54.003Z,9.30
2019-04-03T12:52:24.244Z,9.30
2019-04-03T12:55:04.432Z,9.40
2019-04-03T12:57:39.801Z,9.30
2019-04-03T13:00:13.900Z,9.40
2019-04-03T13:02:50.067Z,9.50
2019-04-03T13:05:24.485Z,9.70
2019-04-03T13:08:00.241Z,9.80
2019-04-03T13:10:41.349Z,10.00
2019-04-03T13:13:08.071Z,10.10
2019-04-03T13:15:40.263Z,10.30
2019-04-03T13:18:17.703Z,10.30
2019-04-03T13:20:52.338Z,10.40
2019-04-03T13:23:25.725Z,10.40
2019-04-03T13:26:09.643Z,10.30
2019-04-03T13:28:42.267Z,10.30
2019-04-03T13:31:15.875Z,10.30
2019-04-03T13:34:15.971Z,10.30
2019-04-03T13:40:06.746Z,10.30
2019-04-03T13:42:40.844Z,10.50
2019-04-03T13:45:19.326Z,10.70
2019-04-03T13:47:54.270Z,10.80
2019-04-03T13:50:25.805Z,10.90
2019-04-03T13:52:58.457Z,11.00
2019-04-03T13:55:37.639Z,11.10
2019-04-03T13:58:07.327Z,11.30
2019-04-03T14:00:40.696Z,11.30
2019-04-03T14:03:17.612Z,11.30
2019-04-03T14:05:46.455Z,11.30
2019-04-03T14:08:24.098Z,11.20
2019-04-03T14:10:57.910Z,11.20
2019-04-03T14:13:36.003Z,11.10
2019-04-03T14:16:56.663Z,11.10
2019-04-03T14:18:51.385Z,11.10
2019-04-03T14:21:34.969Z,11.10
2019-04-03T14:24:17.519Z,11.10
2019-04-03T14:26:52.081Z,11.00
2019-04-03T14:29:38.543Z,11.10
2019-04-03T14:32:13.373Z,10.90
2019-04-03T14:34:46.256Z,10.70
2019-04-03T14:37:24.491Z,10.70
2019-04-03T14:39:59.072Z,10.90
2019-04-03T14:42:34.058Z,11.00
2019-04-03T14:45:12.860Z,11.10
2019-04-03T14:47:46.565Z,11.00
2019-04-03T14:50:27.399Z,11.00
2019-04-03T14:53:03.081Z,11.10
2019-04-03T14:55:49.901Z,11.00
2019-04-03T14:58:33.075Z,11.10
2019-04-03T15:01:08.022Z,11.10
2019-04-03T15:03:44.587Z,11.10
2019-04-03T15:06:17.723Z,11.10
2019-04-03T15:08:49.394Z,11.20
2019-04-03T15:11:27.988Z,11.10
2019-04-03T15:14:01.989Z,11.00
2019-04-03T15:16:35.289Z,10.90
2019-04-03T15:19:17.270Z,10.80
2019-04-03T15:21:57.134Z,10.90
2019-04-03T15:24:30.201Z,10.90
2019-04-03T15:27:06.624Z,10.90
2019-04-03T15:29:40.832Z,10.80
2019-04-03T15:32:12.092Z,10.80
2019-04-03T15:34:46.034Z,10.80
2019-04-03T15:37:19.785Z,10.70
2019-04-03T15:40:21.028Z,10.50
2019-04-03T15:42:56.763Z,10.50
2019-04-03T15:45:27.886Z,10.50
2019-04-03T15:48:01.604Z,10.50
2019-04-03T15:50:38.445Z,10.50
2019-04-03T15:53:19.152Z,10.60
2019-04-03T15:56:00.410Z,10.60
2019-04-03T15:58:36.255Z,10.50
2019-04-03T16:01:20.744Z,10.50
2019-04-03T16:03:59.093Z,10.40
2019-04-03T16:06:37.411Z,10.30
2019-04-03T16:09:12.811Z,10.30
2019-04-03T16:11:48.328Z,10.20
2019-04-03T16:14:22.412Z,10.20
2019-04-03T16:16:54.338Z,10.10
2019-04-03T16:19:25.784Z,10.10
2019-04-03T16:22:05.187Z,10.10
2019-04-03T16:24:57.695Z,10.20
2019-04-03T16:27:34.000Z,10.10
2019-04-03T16:30:07.333Z,10.20
2019-04-03T16:32:42.758Z,10.20
2019-04-03T16:35:24.396Z,10.20
2019-04-03T16:38:04.579Z,10.10
2019-04-03T16:40:42.198Z,10.10
2019-04-03T16:43:17.591Z,10.10
2019-04-03T16:45:52.608Z,10.10
2019-04-03T16:48:27.650Z,10.10
2019-04-03T16:51:08.996Z,10.10
2019-04-03T16:53:44.841Z,10.10
2019-04-03T16:56:33.956Z,10.00
2019-04-03T16:59:10.443Z,10.00
2019-04-03T17:01:46.809Z,10.00
2019-04-03T17:04:26.844Z,10.00
2019-04-03T17:06:55.694Z,9.90
2019-04-03T17:09:58.385Z,9.90
2019-04-03T17:12:33.540Z,9.90
2019-04-03T17:15:17.855Z,9.80
2019-04-03T17:17:54.132Z,9.80
2019-04-03T17:20:25.167Z,9.70
2019-04-03T17:23:04.270Z,9.70
2019-04-03T17:25:48.207Z,9.60
2019-04-03T17:28:27.205Z,9.50
2019-04-03T17:30:59.974Z,9.50
2019-04-03T17:33:35.968Z,9.40
2019-04-03T17:36:23.441Z,9.30
2019-04-03T17:38:56.775Z,9.30
2019-04-03T17:41:30.619Z,9.20
2019-04-03T17:44:03.562Z,9.10
2019-04-03T17:46:36.628Z,9.00
2019-04-03T17:49:17.839Z,9.00
2019-04-03T17:51:54.190Z,9.00
2019-04-03T17:54:38.186Z,8.90
2019-04-03T17:57:17.488Z,8.90
2019-04-03T17:59:52.201Z,8.80
2019-04-03T18:02:29.703Z,8.80
2019-04-03T18:05:07.674Z,8.70
2019-04-03T18:07:43.445Z,8.50
2019-04-03T18:10:20.710Z,8.20
2019-04-03T18:12:52.381Z,8.00
2019-04-03T18:15:28.381Z,7.80
2019-04-03T18:18:20.035Z,7.70
2019-04-03T18:20:52.662Z,7.60
2019-04-03T18:23:32.347Z,7.50
2019-04-03T18:26:09.618Z,7.40
2019-04-03T18:28:43.930Z,7.40
2019-04-03T18:31:17.079Z,7.50
2019-04-03T18:33:54.743Z,7.50
2019-04-03T18:36:30.948Z,7.50
2019-04-03T18:39:00.861Z,7.50
2019-04-03T18:41:45.831Z,7.50
2019-04-03T18:44:22.632Z,7.40
2019-04-03T18:47:04.973Z,7.30
2019-04-03T18:49:49.893Z,7.20
2019-04-03T18:52:24.457Z,7.20
2019-04-03T18:54:55.283Z,7.20
2019-04-03T18:57:26.151Z,7.20
2019-04-03T19:00:02.954Z,7.30
2019-04-03T19:02:43.583Z,7.30
2019-04-03T19:05:14.317Z,7.30
2019-04-03T19:07:46.676Z,7.20
2019-04-03T19:10:19.155Z,7.20
2019-04-03T19:12:54.141Z,7.10
2019-04-03T19:15:28.176Z,7.10
2019-04-03T19:18:18.991Z,7.10
2019-04-03T19:20:46.209Z,7.10
2019-04-03T19:23:19.445Z,7.10
2019-04-03T19:26:04.961Z,7.00
2019-04-03T19:28:43.485Z,7.00
2019-04-03T19:31:16.334Z,7.00
2019-04-03T19:33:49.128Z,6.90
2019-04-03T19:36:29.855Z,6.90
2019-04-03T19:39:07.142Z,6.90
2019-04-03T19:41:44.711Z,6.90
2019-04-03T19:44:28.498Z,6.90
2019-04-03T19:46:59.584Z,6.90
2019-04-03T19:49:36.653Z,6.90
2019-04-03T19:52:17.291Z,6.80
2019-04-03T19:54:52.048Z,6.90
2019-04-03T19:57:29.456Z,6.80
2019-04-03T20:00:04.822Z,6.90
2019-04-03T20:02:45.436Z,6.90
2019-04-03T20:05:18.907Z,6.90
2019-04-03T20:07:49.369Z,6.90
2019-04-03T20:10:20.545Z,6.90
2019-04-03T20:12:51.231Z,6.90
2019-04-03T20:15:24.348Z,6.90
2019-04-03T20:17:58.462Z,6.90
2019-04-03T20:20:33.602Z,6.90
2019-04-03T20:23:10.442Z,6.90
2019-04-03T20:25:41.772Z,6.80
2019-04-03T20:28:15.542Z,6.90
2019-04-03T20:30:49.219Z,6.80
2019-04-03T20:33:28.169Z,6.80
2019-04-03T20:36:07.474Z,6.80
2019-04-03T20:38:38.810Z,6.80
2019-04-03T20:41:11.808Z,6.80
2019-04-03T20:43:57.698Z,6.80
2019-04-03T20:46:34.789Z,6.80
2019-04-03T20:49:11.820Z,6.80
2019-04-03T20:51:43.194Z,6.70
2019-04-03T20:54:21.386Z,6.70
2019-04-03T20:56:58.526Z,6.70
2019-04-03T20:59:37.308Z,6.70
2019-04-03T21:02:10.271Z,6.70
2019-04-03T21:04:41.092Z,6.70
2019-04-03T21:07:18.694Z,6.70
2019-04-03T21:09:49.589Z,6.70
2019-04-03T21:12:20.157Z,6.70
2019-04-03T21:14:51.092Z,6.70
2019-04-03T21:17:23.963Z,6.70
2019-04-03T21:20:00.237Z,6.70
2019-04-03T21:22:30.733Z,6.70
2019-04-03T21:25:04.910Z,6.70
2019-04-03T21:27:33.792Z,6.70
2019-04-03T21:30:09.469Z,6.70
2019-04-03T21:32:40.042Z,6.70
2019-04-03T21:35:11.347Z,6.70
2019-04-03T21:37:42.244Z,6.70
2019-04-03T21:40:13.002Z,6.70
2019-04-03T21:42:45.358Z,6.70
2019-04-03T21:45:17.353Z,6.70
2019-04-03T21:47:50.607Z,6.60
2019-04-03T21:50:20.913Z,6.60
2019-04-03T21:52:53.858Z,6.50
2019-04-03T21:55:26.263Z,6.50
2019-04-03T21:57:58.646Z,6.50
2019-04-03T22:01:09.071Z,6.50
2019-04-03T22:03:39.804Z,6.50
2019-04-03T22:06:14.172Z,6.40
2019-04-03T22:08:44.746Z,6.50
2019-04-03T22:11:17.583Z,6.40
2019-04-03T22:13:52.046Z,6.50
2019-04-03T22:16:24.946Z,6.50
2019-04-03T22:18:56.997Z,6.50
2019-04-03T22:21:28.736Z,6.50
2019-04-03T22:23:59.011Z,6.50
2019-04-03T22:26:36.907Z,6.50
2019-04-03T22:29:07.586Z,6.50
2019-04-03T22:31:41.325Z,6.50
2019-04-03T22:34:12.037Z,6.50
2019-04-03T22:36:43.482Z,6.40
2019-04-03T22:39:14.087Z,6.40
2019-04-03T22:41:44.541Z,6.40
2019-04-03T22:44:17.952Z,6.40
2019-04-03T22:46:48.888Z,6.40
2019-04-03T22:49:19.097Z,6.40
2019-04-03T22:51:49.608Z,6.50
2019-04-03T22:54:22.519Z,6.50
2019-04-03T22:56:52.067Z,6.50
2019-04-03T22:59:24.312Z,6.50
2019-04-03T23:01:54.695Z,6.50
2019-04-03T23:04:26.354Z,6.40
2019-04-03T23:06:59.815Z,6.40
2019-04-03T23:09:30.575Z,6.40
2019-04-03T23:12:03.033Z,6.50
2019-04-03T23:14:33.919Z,6.40
2019-04-03T23:17:04.245Z,6.50
2019-04-03T23:19:34.769Z,6.50
2019-04-03T23:22:05.493Z,6.50
2019-04-03T23:24:36.023Z,6.40
2019-04-03T23:27:06.482Z,6.50
2019-04-03T23:29:37.112Z,6.40
2019-04-03T23:32:07.914Z,6.40
2019-04-03T23:34:38.305Z,6.40
2019-04-03T23:37:09.168Z,6.40
2019-04-03T23:39:39.421Z,6.50
2019-04-03T23:42:09.948Z,6.40
2019-04-03T23:44:42.123Z,6.40
2019-04-03T23:47:12.520Z,6.40
2019-04-03T23:49:44.684Z,6.30
2019-04-03T23:52:15.142Z,6.30
2019-04-03T23:54:45.462Z,6.30
2019-04-03T23:57:17.580Z,6.30
2019-04-03T23:59:47.966Z,6.20
